Time;durP1;ratioP1;P1;durP2;ratioP2;P2;SDS_P1;SDS_P2;PMS_P1;PMS_P2;Temp;Humidity;BMP_temperature;BMP_pressure;BME280_temperature;BME280_humidity;BME280_pressure;Samples;Min_cycle;Max_cycle;Signal;HPM_P1;HPM_P2
2020/10/18 00:00:27;;;;;;;2.5;1.3;;;;;;;;;;;;;
2020/10/18 00:02:56;;;;;;;2.2;0.9;;;;;;;;;;;;;
2020/10/18 00:05:21;;;;;;;4.6;1.3;;;;;;;;;;;;;
2020/10/18 00:07:46;;;;;;;2.3;1.4;;;;;;;;;;;;;
2020/10/18 00:10:11;;;;;;;1.3;1.1;;;;;;;;;;;;;
2020/10/18 00:12:36;;;;;;;1.6;1.1;;;;;;;;;;;;;
2020/10/18 00:15:02;;;;;;;1.6;1.2;;;;;;;;;;;;;
2020/10/18 00:17:27;;;;;;;1.1;0.9;;;;;;;;;;;;;
2020/10/18 00:19:52;;;;;;;0.6;0.6;;;;;;;;;;;;;
2020/10/18 00:22:18;;;;;;;1.4;0.9;;;;;;;;;;;;;
2020/10/18 00:24:43;;;;;;;1.7;0.8;;;;;;;;;;;;;
2020/10/18 00:27:10;;;;;;;1.9;1.2;;;;;;;;;;;;;
2020/10/18 00:29:35;;;;;;;0.8;0.7;;;;;;;;;;;;;
2020/10/18 00:32:01;;;;;;;1.7;1;;;;;;;;;;;;;
2020/10/18 00:34:26;;;;;;;2.1;1.1;;;;;;;;;;;;;
2020/10/18 00:36:52;;;;;;;1.3;0.9;;;;;;;;;;;;;
2020/10/18 00:39:17;;;;;;;1.7;1;;;;;;;;;;;;;
2020/10/18 00:41:43;;;;;;;1.2;0.8;;;;;;;;;;;;;
2020/10/18 00:44:08;;;;;;;1.3;1;;;;;;;;;;;;;
2020/10/18 00:46:34;;;;;;;1.2;0.9;;;;;;;;;;;;;
2020/10/18 00:48:59;;;;;;;0.8;0.8;;;;;;;;;;;;;
2020/10/18 00:51:25;;;;;;;0.9;0.7;;;;;;;;;;;;;
2020/10/18 00:53:50;;;;;;;1.6;1;;;;;;;;;;;;;
2020/10/18 00:56:17;;;;;;;1.4;1.1;;;;;;;;;;;;;
2020/10/18 00:58:42;;;;;;;2.3;1;;;;;;;;;;;;;
2020/10/18 01:01:07;;;;;;;0.9;0.6;;;;;;;;;;;;;
2020/10/18 01:03:33;;;;;;;26.7;16;;;;;;;;;;;;;
2020/10/18 01:05:58;;;;;;;17.4;11.9;;;;;;;;;;;;;
2020/10/18 01:08:24;;;;;;;5.7;3.6;;;;;;;;;;;;;
2020/10/18 01:10:48;;;;;;;1.2;1.1;;;;;;;;;;;;;
2020/10/18 01:13:14;;;;;;;1.2;0.7;;;;;;;;;;;;;
2020/10/18 01:15:40;;;;;;;2.4;1.1;;;;;;;;;;;;;
2020/10/18 01:18:06;;;;;;;1.1;0.8;;;;;;;;;;;;;
2020/10/18 01:20:32;;;;;;;1.1;0.8;;;;;;;;;;;;;
2020/10/18 01:22:57;;;;;;;2.8;0.9;;;;;;;;;;;;;
2020/10/18 01:25:22;;;;;;;1.1;0.9;;;;;;;;;;;;;
2020/10/18 01:27:48;;;;;;;1.2;0.9;;;;;;;;;;;;;
2020/10/18 01:30:15;;;;;;;1.5;1;;;;;;;;;;;;;
2020/10/18 01:32:40;;;;;;;1.1;0.9;;;;;;;;;;;;;
2020/10/18 01:35:05;;;;;;;2.2;0.9;;;;;;;;;;;;;
2020/10/18 01:37:31;;;;;;;1;0.8;;;;;;;;;;;;;
2020/10/18 01:39:56;;;;;;;2.6;1.1;;;;;;;;;;;;;
2020/10/18 01:42:22;;;;;;;1.3;0.9;;;;;;;;;;;;;
2020/10/18 01:44:47;;;;;;;3;1.3;;;;;;;;;;;;;
2020/10/18 01:47:13;;;;;;;1.1;1;;;;;;;;;;;;;
2020/10/18 01:49:38;;;;;;;1.8;0.8;;;;;;;;;;;;;
2020/10/18 01:52:04;;;;;;;1;0.8;;;;;;;;;;;;;
2020/10/18 01:54:29;;;;;;;1.9;1;;;;;;;;;;;;;
2020/10/18 01:56:55;;;;;;;1.4;0.8;;;;;;;;;;;;;
2020/10/18 01:59:21;;;;;;;1.1;0.6;;;;;;;;;;;;;
2020/10/18 02:01:48;;;;;;;1;0.9;;;;;;;;;;;;;
2020/10/18 02:04:13;;;;;;;1;0.8;;;;;;;;;;;;;
2020/10/18 02:06:38;;;;;;;0.9;0.8;;;;;;;;;;;;;
2020/10/18 02:09:04;;;;;;;0.9;0.8;;;;;;;;;;;;;
2020/10/18 02:11:30;;;;;;;1.3;0.8;;;;;;;;;;;;;
2020/10/18 02:13:55;;;;;;;1.1;0.7;;;;;;;;;;;;;
2020/10/18 02:16:22;;;;;;;1.3;0.9;;;;;;;;;;;;;
2020/10/18 02:18:47;;;;;;;1.4;1;;;;;;;;;;;;;
2020/10/18 02:21:13;;;;;;;1.6;1.2;;;;;;;;;;;;;
2020/10/18 02:23:38;;;;;;;2.9;1.4;;;;;;;;;;;;;
2020/10/18 02:26:05;;;;;;;1.2;1;;;;;;;;;;;;;
2020/10/18 02:28:30;;;;;;;1.6;1.2;;;;;;;;;;;;;
2020/10/18 02:30:57;;;;;;;1.1;0.9;;;;;;;;;;;;;
2020/10/18 02:33:22;;;;;;;1.3;1.1;;;;;;;;;;;;;
2020/10/18 02:35:48;;;;;;;1.4;1;;;;;;;;;;;;;
2020/10/18 02:38:13;;;;;;;1.1;0.9;;;;;;;;;;;;;
2020/10/18 02:40:39;;;;;;;1.4;1;;;;;;;;;;;;;
2020/10/18 02:43:05;;;;;;;1.2;0.8;;;;;;;;;;;;;
2020/10/18 02:45:33;;;;;;;2.9;1;;;;;;;;;;;;;
2020/10/18 02:48:00;;;;;;;1.2;0.9;;;;;;;;;;;;;
2020/10/18 02:50:26;;;;;;;1.9;1;;;;;;;;;;;;;
2020/10/18 02:52:51;;;;;;;0.6;0.6;;;;;;;;;;;;;
2020/10/18 02:55:16;;;;;;;1.6;1;;;;;;;;;;;;;
2020/10/18 02:57:42;;;;;;;1.7;1.1;;;;;;;;;;;;;
2020/10/18 03:00:07;;;;;;;1.4;1;;;;;;;;;;;;;
2020/10/18 03:02:34;;;;;;;3.9;1.6;;;;;;;;;;;;;
2020/10/18 03:04:59;;;;;;;5.7;2.3;;;;;;;;;;;;;
2020/10/18 03:07:25;;;;;;;4.6;1.3;;;;;;;;;;;;;
2020/10/18 03:09:50;;;;;;;4.9;1.7;;;;;;;;;;;;;
2020/10/18 03:12:15;;;;;;;2.4;1.6;;;;;;;;;;;;;
2020/10/18 03:14:40;;;;;;;2.1;1;;;;;;;;;;;;;
2020/10/18 03:17:05;;;;;;;1.6;1;;;;;;;;;;;;;
2020/10/18 03:19:31;;;;;;;1.3;0.9;;;;;;;;;;;;;
2020/10/18 03:21:56;;;;;;;1.3;0.8;;;;;;;;;;;;;
2020/10/18 03:24:21;;;;;;;0.8;0.8;;;;;;;;;;;;;
2020/10/18 03:26:46;;;;;;;0.8;0.6;;;;;;;;;;;;;
2020/10/18 03:29:12;;;;;;;0.8;0.6;;;;;;;;;;;;;
2020/10/18 03:31:37;;;;;;;1.9;1;;;;;;;;;;;;;
2020/10/18 03:34:03;;;;;;;1.5;1;;;;;;;;;;;;;
2020/10/18 03:36:28;;;;;;;1.9;0.8;;;;;;;;;;;;;
2020/10/18 03:38:54;;;;;;;1;0.8;;;;;;;;;;;;;
2020/10/18 03:41:19;;;;;;;1.5;0.8;;;;;;;;;;;;;
2020/10/18 03:43:46;;;;;;;1.5;1.1;;;;;;;;;;;;;
2020/10/18 03:46:11;;;;;;;1.1;0.9;;;;;;;;;;;;;
2020/10/18 03:48:38;;;;;;;1.5;1;;;;;;;;;;;;;
2020/10/18 03:51:03;;;;;;;1.1;1;;;;;;;;;;;;;
2020/10/18 03:53:28;;;;;;;1.9;1.2;;;;;;;;;;;;;
2020/10/18 03:55:53;;;;;;;1.8;1;;;;;;;;;;;;;
2020/10/18 03:58:18;;;;;;;1.1;0.9;;;;;;;;;;;;;
2020/10/18 04:02:33;;;;;;;1.5;1;;;;;;;7.42;88.16797;940.9189;;;;
2020/10/18 04:05:03;;;;;;;1.1;0.9;;;;;;;7.36;88.32324;940.8748;;;;
2020/10/18 04:07:30;;;;;;;2.2;1.2;;;;;;;7.2;88.94824;940.923;;;;
2020/10/18 04:09:55;;;;;;;2;1.2;;;;;;;6.91;90.91504;940.8887;;;;
2020/10/18 04:12:20;;;;;;;2;1.3;;;;;;;7.03;90.66797;940.9216;;;;
2020/10/18 04:14:47;;;;;;;1;0.9;;;;;;;7.28;89.49609;940.9339;;;;
2020/10/18 04:17:12;;;;;;;2.6;0.8;;;;;;;7.28;89.08789;940.9347;;;;
2020/10/18 04:19:37;;;;;;;1.3;1;;;;;;;7.05;89.96777;940.9536;;;;
2020/10/18 04:22:02;;;;;;;1.9;1.1;;;;;;;6.91;90.74316;940.9883;;;;
2020/10/18 04:24:27;;;;;;;1.4;0.9;;;;;;;6.95;90.81934;940.9246;;;;
2020/10/18 04:26:53;;;;;;;0.9;0.7;;;;;;;7.06;90.4834;940.9691;;;;
2020/10/18 04:29:18;;;;;;;1;0.9;;;;;;;7.06;90.47266;940.9739;;;;
2020/10/18 04:31:43;;;;;;;1.8;1;;;;;;;7.02;90.46289;940.9807;;;;
2020/10/18 04:34:08;;;;;;;1;0.7;;;;;;;6.96;90.63281;940.9448;;;;
2020/10/18 04:36:33;;;;;;;1.2;1;;;;;;;6.63;91.94043;940.9328;;;;
2020/10/18 04:39:00;;;;;;;1.6;1;;;;;;;6.96;91.20801;940.9454;;;;
2020/10/18 04:41:27;;;;;;;0.8;0.8;;;;;;;7.12;90.25684;940.981;;;;
2020/10/18 04:43:54;;;;;;;2;1;;;;;;;7.2;89.92285;941.0132;;;;
2020/10/18 04:46:20;;;;;;;0.8;0.8;;;;;;;7.31;89.58301;940.9695;;;;
2020/10/18 04:48:45;;;;;;;1.2;1;;;;;;;7.32;89.47168;940.9872;;;;
2020/10/18 04:51:10;;;;;;;0.8;0.8;;;;;;;7.1;89.96777;941.0017;;;;
2020/10/18 04:53:36;;;;;;;1;0.8;;;;;;;7.23;89.82617;940.9667;;;;
2020/10/18 04:56:02;;;;;;;1.4;0.9;;;;;;;7.19;89.38867;940.9385;;;;
2020/10/18 04:58:27;;;;;;;0.8;0.8;;;;;;;7.15;89.78906;941.0286;;;;
2020/10/18 05:00:52;;;;;;;1.7;0.9;;;;;;;7.16;89.8252;940.9868;;;;
2020/10/18 05:03:18;;;;;;;1.3;1;;;;;;;7.27;89.5752;941.0818;;;;
2020/10/18 05:05:44;;;;;;;1.4;1.1;;;;;;;7.3;89.41113;941.0494;;;;
2020/10/18 05:08:09;;;;;;;1.3;1;;;;;;;7.31;89.39063;941.002;;;;
2020/10/18 05:10:34;;;;;;;1.1;0.8;;;;;;;7.28;89.49805;941.1209;;;;
2020/10/18 05:13:01;;;;;;;2.2;0.9;;;;;;;7.14;89.77344;941.1105;;;;
2020/10/18 05:15:26;;;;;;;1.4;0.9;;;;;;;7.25;89.61719;941.1305;;;;
2020/10/18 05:17:51;;;;;;;1.1;0.8;;;;;;;7.03;89.90918;941.0933;;;;
2020/10/18 05:20:16;;;;;;;1.6;1.1;;;;;;;7.28;89.22656;941.1906;;;;
2020/10/18 05:22:41;;;;;;;0.8;0.8;;;;;;;7.45;88.79688;941.1018;;;;
2020/10/18 05:25:06;;;;;;;1;0.8;;;;;;;7.35;88.8877;941.1394;;;;
2020/10/18 05:27:33;;;;;;;1;0.8;;;;;;;7.55;88.22754;941.0355;;;;
2020/10/18 05:29:58;;;;;;;2.1;1.2;;;;;;;7.6;87.88574;941.1103;;;;
2020/10/18 05:32:28;;;;;;;1.5;0.8;;;;;;;7.62;87.47168;941.1881;;;;
2020/10/18 05:34:53;;;;;;;1.2;1;;;;;;;7.61;87.45605;941.2211;;;;
2020/10/18 05:37:18;;;;;;;1.7;0.8;;;;;;;7.69;87.20117;941.1882;;;;
2020/10/18 05:39:43;;;;;;;0.9;0.8;;;;;;;7.72;86.92285;941.166;;;;
2020/10/18 05:42:09;;;;;;;1.2;0.7;;;;;;;7.61;86.94824;941.2545;;;;
2020/10/18 05:44:34;;;;;;;0.7;0.7;;;;;;;7.62;87.15234;941.2339;;;;
2020/10/18 05:46:59;;;;;;;2.3;0.9;;;;;;;7.64;87.05566;941.3542;;;;
2020/10/18 05:49:24;;;;;;;1.4;0.9;;;;;;;7.68;87.1875;941.3527;;;;
2020/10/18 05:51:51;;;;;;;2.5;1;;;;;;;7.54;87.5;941.3909;;;;
2020/10/18 05:54:16;;;;;;;3.2;1.1;;;;;;;7.5;87.96777;941.4336;;;;
2020/10/18 05:56:41;;;;;;;0.8;0.8;;;;;;;7.55;87.8877;941.4301;;;;
2020/10/18 05:59:06;;;;;;;2.2;1.3;;;;;;;7.69;87.55078;941.5289;;;;
2020/10/18 06:01:32;;;;;;;3.7;1.6;;;;;;;7.66;88.04395;941.5416;;;;
2020/10/18 06:03:58;;;;;;;1.2;0.9;;;;;;;7.61;88.4541;941.575;;;;
2020/10/18 06:06:23;;;;;;;1.2;1.1;;;;;;;7.65;88.42969;941.6222;;;;
2020/10/18 06:08:48;;;;;;;1.2;0.9;;;;;;;7.72;87.97754;941.6613;;;;
2020/10/18 06:11:13;;;;;;;1.3;1;;;;;;;7.81;87.49707;941.7054;;;;
2020/10/18 06:13:40;;;;;;;1.5;0.9;;;;;;;7.84;87.08301;941.7233;;;;
2020/10/18 06:16:06;;;;;;;3.7;0.9;;;;;;;7.72;86.66406;941.8183;;;;
2020/10/18 06:18:31;;;;;;;1.4;1;;;;;;;7.68;87.45996;941.8695;;;;
2020/10/18 06:20:56;;;;;;;0.8;0.7;;;;;;;7.76;87.51953;941.8834;;;;
2020/10/18 06:23:25;;;;;;;1.2;1;;;;;;;7.85;87.45898;941.8622;;;;
2020/10/18 06:25:54;;;;;;;1.4;1;;;;;;;7.88;86.99121;941.9217;;;;
2020/10/18 06:28:19;;;;;;;1.5;1;;;;;;;7.9;87.07324;941.9849;;;;
2020/10/18 06:30:50;;;;;;;1.9;1;;;;;;;7.76;87.28223;942.0173;;;;
2020/10/18 06:33:15;;;;;;;1;0.9;;;;;;;7.66;86.80957;942.0355;;;;
2020/10/18 06:35:46;;;;;;;1.6;1.1;;;;;;;7.69;86.91699;942.0187;;;;
2020/10/18 06:38:11;;;;;;;1.8;1;;;;;;;7.81;86.75977;942.0769;;;;
2020/10/18 06:40:41;;;;;;;2.3;0.8;;;;;;;7.57;87.08496;942.0494;;;;
2020/10/18 06:43:06;;;;;;;847.3;472.5;;;;;;;7.44;87.52539;942.0873;;;;
2020/10/18 06:45:33;;;;;;;26.7;13.7;;;;;;;7.2;88.91504;942.0634;;;;
2020/10/18 06:47:58;;;;;;;14.2;6.3;;;;;;;7.37;88.49707;942.1514;;;;
2020/10/18 06:50:23;;;;;;;10.1;3.3;;;;;;;7.54;88.37305;942.2191;;;;
2020/10/18 06:52:48;;;;;;;5.9;3.3;;;;;;;7.75;87.92871;942.2494;;;;
2020/10/18 06:55:16;;;;;;;6.7;3.7;;;;;;;7.78;87.23047;942.247;;;;
2020/10/18 06:57:41;;;;;;;3.2;1.8;;;;;;;7.85;86.7666;942.3061;;;;
2020/10/18 07:00:06;;;;;;;1.9;1.4;;;;;;;7.88;86.20898;942.3602;;;;
2020/10/18 07:02:31;;;;;;;3.7;1.8;;;;;;;8;86.56152;942.3331;;;;
2020/10/18 07:04:57;;;;;;;2.1;1.5;;;;;;;8.19;86.37207;942.4286;;;;
2020/10/18 07:07:23;;;;;;;3.9;1.7;;;;;;;8.36;86.30273;942.4222;;;;
2020/10/18 07:09:50;;;;;;;17.7;10.4;;;;;;;8.43;85.11133;942.4598;;;;
2020/10/18 07:12:15;;;;;;;6.3;3;;;;;;;8.45;84.44629;942.4796;;;;
2020/10/18 07:14:40;;;;;;;3.1;2.2;;;;;;;8.53;84.21191;942.5035;;;;
2020/10/18 07:17:09;;;;;;;1.6;1.3;;;;;;;8.22;84.21777;942.5248;;;;
2020/10/18 07:19:35;;;;;;;61.8;37.3;;;;;;;8.24;83.83691;942.6071;;;;
2020/10/18 07:22:00;;;;;;;12.9;6.6;;;;;;;8.47;83.74512;942.5705;;;;
2020/10/18 07:24:25;;;;;;;5.4;2.8;;;;;;;8.62;83.85449;942.5854;;;;
2020/10/18 07:26:50;;;;;;;2.8;1.6;;;;;;;8.7;83.81348;942.6531;;;;
2020/10/18 07:29:15;;;;;;;2;1.4;;;;;;;8.71;83.49707;942.6796;;;;
2020/10/18 07:31:40;;;;;;;2;1.1;;;;;;;8.72;83.9209;942.6909;;;;
2020/10/18 07:34:08;;;;;;;1.1;0.9;;;;;;;8.72;83.95508;942.6655;;;;
2020/10/18 07:36:32;;;;;;;1.8;1;;;;;;;8.81;83.83594;942.6386;;;;
2020/10/18 07:38:59;;;;;;;1.5;1;;;;;;;8.89;83.44043;942.7166;;;;
2020/10/18 07:41:24;;;;;;;3.7;1.2;;;;;;;8.91;83.29492;942.755;;;;
2020/10/18 07:43:49;;;;;;;1.6;1;;;;;;;8.86;83.03711;942.8;;;;
2020/10/18 07:46:19;;;;;;;2.1;0.9;;;;;;;8.54;82.9082;942.7254;;;;
2020/10/18 07:48:44;;;;;;;1.3;0.9;;;;;;;8.54;83.11328;942.7499;;;;
2020/10/18 07:51:11;;;;;;;1.9;1.1;;;;;;;8.72;82.83887;942.6797;;;;
2020/10/18 07:53:36;;;;;;;1.6;1.3;;;;;;;8.79;82.5918;942.7545;;;;
2020/10/18 07:56:01;;;;;;;2.4;1.4;;;;;;;9.02;81.61133;942.7928;;;;
2020/10/18 07:58:26;;;;;;;5.1;2.7;;;;;;;8.98;82.02539;942.8052;;;;
2020/10/18 08:00:51;;;;;;;3.1;1.9;;;;;;;9.14;82.14551;942.7151;;;;
2020/10/18 08:03:17;;;;;;;2;1.5;;;;;;;9.12;82.63281;942.649;;;;
2020/10/18 08:05:42;;;;;;;4.8;1.9;;;;;;;9.41;81.64063;942.7125;;;;
2020/10/18 08:08:09;;;;;;;1.9;1.3;;;;;;;9.4;78.39355;942.7576;;;;
2020/10/18 08:10:36;;;;;;;3.6;2.1;;;;;;;9.54;79.27246;942.7378;;;;
2020/10/18 08:13:02;;;;;;;1.9;1.5;;;;;;;9.48;78.66992;942.7628;;;;
2020/10/18 08:15:30;;;;;;;2.5;1.7;;;;;;;9.85;77.66602;942.7542;;;;
2020/10/18 08:17:55;;;;;;;2;1.2;;;;;;;10.12;77.58887;942.695;;;;
2020/10/18 08:20:20;;;;;;;2.4;2;;;;;;;10.36;77.99707;942.8583;;;;
2020/10/18 08:22:46;;;;;;;1.8;1;;;;;;;10.54;76.63574;942.7438;;;;
2020/10/18 08:25:11;;;;;;;1.7;1.2;;;;;;;10.77;73.20215;942.7922;;;;
2020/10/18 08:27:38;;;;;;;1.2;0.9;;;;;;;11;73.20703;942.8064;;;;
2020/10/18 08:30:03;;;;;;;3.4;2.3;;;;;;;10.97;71.74023;942.7661;;;;
2020/10/18 08:32:29;;;;;;;1.4;1.2;;;;;;;11.06;73.92871;942.7392;;;;
2020/10/18 08:34:54;;;;;;;3.1;1.9;;;;;;;11.09;72.92676;942.7467;;;;
2020/10/18 08:37:24;;;;;;;7.1;3.8;;;;;;;11.32;72.08398;942.7023;;;;
2020/10/18 08:39:50;;;;;;;6.3;3.5;;;;;;;11.61;71.45703;942.7506;;;;
2020/10/18 08:42:15;;;;;;;1.8;1.3;;;;;;;11.54;70.34668;942.7224;;;;
2020/10/18 08:44:40;;;;;;;1.1;0.9;;;;;;;11.63;70.94434;942.6951;;;;
2020/10/18 08:47:05;;;;;;;1.5;1.2;;;;;;;11.12;70.26758;942.6492;;;;
2020/10/18 08:49:30;;;;;;;2.1;1.2;;;;;;;11.01;71.58691;942.6954;;;;
2020/10/18 08:51:57;;;;;;;2;1;;;;;;;11.08;72.34082;942.6644;;;;
2020/10/18 08:54:21;;;;;;;1.6;1.2;;;;;;;11.4;71.83496;942.6404;;;;
2020/10/18 08:56:49;;;;;;;1.5;1.1;;;;;;;11.4;71.81152;942.6596;;;;
2020/10/18 08:59:13;;;;;;;1.5;0.9;;;;;;;11.42;71.38184;942.6705;;;;
2020/10/18 09:01:39;;;;;;;26;12.9;;;;;;;11.79;68.48828;942.655;;;;
2020/10/18 09:04:08;;;;;;;1.2;0.9;;;;;;;11.55;70.80664;942.6802;;;;
2020/10/18 09:06:33;;;;;;;0.9;0.8;;;;;;;12.07;69.63086;942.6092;;;;
2020/10/18 09:08:58;;;;;;;1.4;0.8;;;;;;;12;66.9502;942.6816;;;;
2020/10/18 09:11:23;;;;;;;0.8;0.8;;;;;;;12.11;66.95508;942.6072;;;;
2020/10/18 09:13:51;;;;;;;1.3;0.6;;;;;;;12.09;67.53711;942.6964;;;;
2020/10/18 09:16:16;;;;;;;1;0.7;;;;;;;12.25;65.95703;942.7311;;;;
2020/10/18 09:18:43;;;;;;;0.9;0.8;;;;;;;12.44;63.30273;942.7468;;;;
2020/10/18 09:21:08;;;;;;;2.5;0.9;;;;;;;12.66;63.40332;942.67;;;;
2020/10/18 09:23:34;;;;;;;1.3;0.8;;;;;;;12.81;62.41504;942.7687;;;;
2020/10/18 09:26:00;;;;;;;0.4;0.4;;;;;;;13.01;61.16895;942.741;;;;
2020/10/18 09:28:25;;;;;;;1;0.7;;;;;;;12.69;62.77539;942.7029;;;;
2020/10/18 09:30:50;;;;;;;0.8;0.7;;;;;;;12.92;62.83398;942.6908;;;;
2020/10/18 09:33:19;;;;;;;1.1;0.9;;;;;;;13.01;61.18066;942.6826;;;;
2020/10/18 09:35:44;;;;;;;1.2;0.9;;;;;;;13.18;62.47949;942.6619;;;;
2020/10/18 09:38:10;;;;;;;2.2;0.7;;;;;;;13.3;58.62402;942.7062;;;;
2020/10/18 09:40:36;;;;;;;1.8;0.8;;;;;;;13.46;57.24414;942.6906;;;;
2020/10/18 09:43:01;;;;;;;1.8;0.6;;;;;;;13.69;59.77051;942.6672;;;;
2020/10/18 09:45:40;;;;;;;1.3;0.9;;;;;;;14.05;58.23047;942.6555;;;;
2020/10/18 09:48:06;;;;;;;1.5;0.9;;;;;;;13.98;57.92188;942.6486;;;;
2020/10/18 09:50:36;;;;;;;0.7;0.6;;;;;;;14.24;56.88672;942.6539;;;;
2020/10/18 09:53:00;;;;;;;2.2;0.9;;;;;;;14.31;56.61816;942.6277;;;;
2020/10/18 09:55:26;;;;;;;1.4;0.8;;;;;;;14.09;57.98438;942.5019;;;;
2020/10/18 09:57:53;;;;;;;1;0.8;;;;;;;14.04;61.41797;942.5682;;;;
2020/10/18 10:00:26;;;;;;;1.1;0.7;;;;;;;13.94;60.07031;942.5845;;;;
2020/10/18 10:02:52;;;;;;;2.2;0.9;;;;;;;14.19;57.9502;942.5734;;;;
2020/10/18 10:05:17;;;;;;;1.7;1.2;;;;;;;13.97;58.94629;942.5685;;;;
2020/10/18 10:07:44;;;;;;;1;0.8;;;;;;;13.98;57.96875;942.5853;;;;
2020/10/18 10:10:09;;;;;;;1.2;0.9;;;;;;;14.25;59.3291;942.5939;;;;
2020/10/18 10:12:35;;;;;;;1.8;1.2;;;;;;;14.6;59.10059;942.5389;;;;
2020/10/18 10:15:03;;;;;;;1.3;0.9;;;;;;;15.11;57.7832;942.4885;;;;
2020/10/18 10:17:28;;;;;;;1.2;0.9;;;;;;;15.41;55.95313;942.4994;;;;
2020/10/18 10:19:53;;;;;;;0.6;0.6;;;;;;;15.36;54.05371;942.4377;;;;
2020/10/18 10:22:20;;;;;;;0.5;0.5;;;;;;;15.15;53.38184;942.3784;;;;
2020/10/18 10:24:46;;;;;;;1;0.6;;;;;;;15.38;54.24121;942.4208;;;;
2020/10/18 10:27:11;;;;;;;1.1;0.9;;;;;;;15.55;56.06445;942.3885;;;;
2020/10/18 10:29:37;;;;;;;1.1;0.8;;;;;;;15.56;53.25879;942.3251;;;;
2020/10/18 10:32:02;;;;;;;1.1;0.8;;;;;;;15.14;55.42285;942.3585;;;;
2020/10/18 10:34:30;;;;;;;1.7;0.9;;;;;;;14.73;54.54102;942.3172;;;;
2020/10/18 10:36:57;;;;;;;0.5;0.5;;;;;;;14.4;56.90625;942.3466;;;;
2020/10/18 10:39:24;;;;;;;1;0.8;;;;;;;14.78;56.89844;942.3373;;;;
2020/10/18 10:41:49;;;;;;;0.4;0.4;;;;;;;14.58;55.9502;942.3041;;;;
2020/10/18 10:44:15;;;;;;;1.1;0.6;;;;;;;14.66;55.83398;942.3669;;;;
2020/10/18 10:46:40;;;;;;;1;0.7;;;;;;;14.67;56.03125;942.3301;;;;
2020/10/18 10:49:07;;;;;;;0.7;0.7;;;;;;;14.24;58.03809;942.3848;;;;
2020/10/18 10:51:32;;;;;;;1.4;0.7;;;;;;;14.83;56.30566;942.3521;;;;
2020/10/18 10:53:57;;;;;;;0.5;0.5;;;;;;;15.27;52.86523;942.3215;;;;
2020/10/18 10:56:24;;;;;;;0.4;0.4;;;;;;;15.62;49.25781;942.2925;;;;
2020/10/18 10:58:49;;;;;;;0.3;0.3;;;;;;;15.77;48.54492;942.3;;;;
2020/10/18 11:01:14;;;;;;;1.1;0.8;;;;;;;16.02;52.52734;942.2729;;;;
2020/10/18 11:03:39;;;;;;;0.8;0.7;;;;;;;16.27;50.87988;942.2662;;;;
2020/10/18 11:06:04;;;;;;;0.8;0.6;;;;;;;16.6;49.27441;942.274;;;;
2020/10/18 11:08:30;;;;;;;0.6;0.5;;;;;;;16.72;49.2998;942.2728;;;;
2020/10/18 11:10:55;;;;;;;1.4;0.8;;;;;;;17.01;43.19043;942.2072;;;;
2020/10/18 11:13:22;;;;;;;1;0.6;;;;;;;17.15;45.83594;942.2191;;;;
2020/10/18 11:15:50;;;;;;;0.6;0.4;;;;;;;17.61;48.80859;942.1278;;;;
2020/10/18 11:18:15;;;;;;;1.3;0.8;;;;;;;18.07;48.3252;942.1339;;;;
2020/10/18 11:20:44;;;;;;;1;0.7;;;;;;;19.06;44.39355;942.0544;;;;
2020/10/18 11:23:12;;;;;;;0.8;0.6;;;;;;;19.25;42.90918;942.0491;;;;
2020/10/18 11:25:38;;;;;;;1.3;0.7;;;;;;;19.46;43.55957;942.0535;;;;
2020/10/18 11:28:03;;;;;;;1.4;0.5;;;;;;;19.29;43.41504;941.9797;;;;
2020/10/18 11:30:29;;;;;;;1;0.7;;;;;;;19.29;43.63672;941.9603;;;;
2020/10/18 11:32:54;;;;;;;0.9;0.4;;;;;;;19.57;42.88281;941.9498;;;;
2020/10/18 11:35:21;;;;;;;1;0.7;;;;;;;19.55;42.26367;941.9002;;;;
2020/10/18 11:37:46;;;;;;;1.1;0.7;;;;;;;19.62;41.17383;941.8166;;;;
2020/10/18 11:40:17;;;;;;;0.5;0.5;;;;;;;19.2;42.71777;941.8317;;;;
2020/10/18 11:42:42;;;;;;;0.8;0.5;;;;;;;20.21;40.30664;941.8747;;;;
2020/10/18 11:45:17;;;;;;;0.7;0.7;;;;;;;20.8;38.32715;941.7869;;;;
2020/10/18 11:47:43;;;;;;;0.7;0.6;;;;;;;20.98;37.25488;941.7787;;;;
2020/10/18 11:50:15;;;;;;;1;0.7;;;;;;;22.24;37.61816;941.746;;;;
2020/10/18 11:52:42;;;;;;;0.8;0.5;;;;;;;22.23;36.03516;941.7511;;;;
2020/10/18 11:55:07;;;;;;;0.5;0.4;;;;;;;22.61;35.18555;941.725;;;;
2020/10/18 11:57:34;;;;;;;1.1;0.6;;;;;;;22.35;35.70508;941.7272;;;;
2020/10/18 11:59:59;;;;;;;0.4;0.3;;;;;;;22.33;34.21289;941.7296;;;;
2020/10/18 12:02:24;;;;;;;1.1;0.7;;;;;;;22.39;33.58398;941.7017;;;;
2020/10/18 12:04:49;;;;;;;0.7;0.5;;;;;;;22.3;33.47168;941.6856;;;;
2020/10/18 12:07:15;;;;;;;0.9;0.5;;;;;;;22.77;33.47266;941.587;;;;
2020/10/18 12:09:40;;;;;;;0.8;0.5;;;;;;;22.84;34.90918;941.6116;;;;
2020/10/18 12:12:04;;;;;;;0.4;0.4;;;;;;;22.46;33.75391;941.5911;;;;
2020/10/18 12:14:30;;;;;;;0.6;0.4;;;;;;;22.96;32.41797;941.5338;;;;
2020/10/18 12:16:56;;;;;;;1.2;0.8;;;;;;;23.89;32.32031;941.5875;;;;
2020/10/18 12:19:22;;;;;;;0.9;0.7;;;;;;;24.34;30.69238;941.5818;;;;
2020/10/18 12:21:47;;;;;;;0.9;0.8;;;;;;;24.67;31.24512;941.5126;;;;
2020/10/18 12:24:14;;;;;;;1.4;0.6;;;;;;;24.07;30.16797;941.5059;;;;
2020/10/18 12:26:38;;;;;;;0.9;0.7;;;;;;;23.16;32.59766;941.5027;;;;
2020/10/18 12:29:05;;;;;;;0.5;0.5;;;;;;;23.34;32.55176;941.4813;;;;
2020/10/18 12:31:30;;;;;;;0.6;0.5;;;;;;;24.24;31.07422;941.4592;;;;
2020/10/18 12:33:56;;;;;;;0.3;0.3;;;;;;;25.16;29.04883;941.4647;;;;
2020/10/18 12:36:21;;;;;;;0.5;0.3;;;;;;;24.6;29.94336;941.4603;;;;
2020/10/18 12:38:52;;;;;;;1.4;0.7;;;;;;;23.78;30.67676;941.4055;;;;
2020/10/18 12:41:18;;;;;;;0.7;0.5;;;;;;;21.96;33.03711;941.432;;;;
2020/10/18 12:43:43;;;;;;;0.3;0.3;;;;;;;22.38;33.64258;941.3416;;;;
2020/10/18 12:46:10;;;;;;;0.8;0.3;;;;;;;23;32.02148;941.3818;;;;
2020/10/18 12:48:35;;;;;;;0.6;0.4;;;;;;;24.76;30.21387;941.36;;;;
2020/10/18 12:51:03;;;;;;;0.5;0.3;;;;;;;25.62;28.09766;941.3762;;;;
2020/10/18 12:53:26;;;;;;;0.7;0.5;;;;;;;27.17;26.7959;941.3147;;;;
2020/10/18 12:55:53;;;;;;;0.2;0.2;;;;;;;27.68;25.36621;941.3497;;;;
2020/10/18 12:58:18;;;;;;;0.7;0.4;;;;;;;26.67;26.50586;941.3376;;;;
2020/10/18 13:00:43;;;;;;;0.5;0.3;;;;;;;26.11;27.49023;941.2738;;;;
2020/10/18 13:03:09;;;;;;;0.8;0.6;;;;;;;26.58;26.64258;941.2436;;;;
2020/10/18 13:05:34;;;;;;;0.6;0.4;;;;;;;27.43;25.3877;941.2144;;;;
2020/10/18 13:08:02;;;;;;;0.5;0.4;;;;;;;27.98;24.25488;941.1308;;;;
2020/10/18 13:10:27;;;;;;;0.4;0.4;;;;;;;28.59;23.9668;941.2355;;;;
2020/10/18 13:12:52;;;;;;;0.5;0.4;;;;;;;28.34;23.72754;941.1691;;;;
2020/10/18 13:15:23;;;;;;;0.5;0.5;;;;;;;26.29;25.98633;941.1693;;;;
2020/10/18 13:17:48;;;;;;;0.3;0.3;;;;;;;25.17;27.64551;941.1323;;;;
2020/10/18 13:20:16;;;;;;;1.3;0.6;;;;;;;24.58;28.39844;941.0872;;;;
2020/10/18 13:22:44;;;;;;;0.6;0.5;;;;;;;23.77;30.26465;941.092;;;;
2020/10/18 13:25:09;;;;;;;0.5;0.4;;;;;;;24.26;29.50879;941.1005;;;;
2020/10/18 13:27:36;;;;;;;0.5;0.4;;;;;;;24.19;30.15234;941.1051;;;;
2020/10/18 13:30:02;;;;;;;1;0.4;;;;;;;23.77;30.08789;941.0914;;;;
2020/10/18 13:32:26;;;;;;;0.5;0.3;;;;;;;24.06;28.98926;941.0989;;;;
2020/10/18 13:34:51;;;;;;;0.3;0.3;;;;;;;22.89;32.04785;941.0753;;;;
2020/10/18 13:37:16;;;;;;;0.3;0.3;;;;;;;21.55;34.02441;941.0916;;;;
2020/10/18 13:39:41;;;;;;;0.5;0.4;;;;;;;20.05;36.58203;941.1472;;;;
2020/10/18 13:42:07;;;;;;;1;0.6;;;;;;;18.89;38.38184;941.0838;;;;
2020/10/18 13:44:31;;;;;;;1.9;0.7;;;;;;;18.24;40.62695;941.0662;;;;
2020/10/18 13:47:05;;;;;;;0.8;0.6;;;;;;;18.3;40.44629;941.1346;;;;
2020/10/18 13:49:30;;;;;;;0.5;0.5;;;;;;;18.47;39.81055;941.0363;;;;
2020/10/18 13:51:57;;;;;;;0.7;0.6;;;;;;;17.93;41.2373;941.1177;;;;
2020/10/18 13:54:21;;;;;;;1;0.4;;;;;;;17.33;42.75781;941.0576;;;;
2020/10/18 13:56:46;;;;;;;2.1;0.7;;;;;;;16.89;44.02441;941.1255;;;;
2020/10/18 13:59:12;;;;;;;0.9;0.5;;;;;;;16.5;43.44141;941.1395;;;;
2020/10/18 14:01:39;;;;;;;1.7;0.9;;;;;;;16.49;43.77539;941.1791;;;;
2020/10/18 14:04:04;;;;;;;2;0.5;;;;;;;16.24;44.3291;941.1775;;;;
2020/10/18 14:06:30;;;;;;;0.9;0.7;;;;;;;16.03;44.37793;941.1749;;;;
2020/10/18 14:08:55;;;;;;;1.3;0.8;;;;;;;15.84;45.49121;941.2078;;;;
2020/10/18 14:11:20;;;;;;;0.8;0.6;;;;;;;15.49;45.07324;941.1792;;;;
2020/10/18 14:13:47;;;;;;;0.8;0.8;;;;;;;15.69;46.17969;941.2173;;;;
2020/10/18 14:16:11;;;;;;;0.5;0.5;;;;;;;15.73;45.76855;941.1479;;;;
2020/10/18 14:18:38;;;;;;;0.9;0.8;;;;;;;15.5;45.94043;941.1968;;;;
2020/10/18 14:21:03;;;;;;;1.8;0.5;;;;;;;15.5;46.83008;941.1872;;;;
2020/10/18 14:23:29;;;;;;;0.7;0.6;;;;;;;15.39;47.17578;941.1954;;;;
2020/10/18 14:25:55;;;;;;;1.5;0.6;;;;;;;14.98;47.98438;941.1193;;;;
2020/10/18 14:28:19;;;;;;;0.5;0.5;;;;;;;14.77;48.41211;941.1837;;;;
2020/10/18 14:30:47;;;;;;;1.8;0.7;;;;;;;14.36;49.29883;941.253;;;;
2020/10/18 14:33:12;;;;;;;0.9;0.6;;;;;;;14.21;49.86914;941.2327;;;;
2020/10/18 14:35:42;;;;;;;1.3;0.8;;;;;;;13.94;50.69043;941.2601;;;;
2020/10/18 14:38:09;;;;;;;1.2;0.6;;;;;;;13.89;51.45605;941.2922;;;;
2020/10/18 14:40:34;;;;;;;3.1;0.9;;;;;;;13.78;50.87793;941.2764;;;;
2020/10/18 14:42:59;;;;;;;1.3;0.9;;;;;;;13.73;51.9082;941.2548;;;;
2020/10/18 14:45:35;;;;;;;0.8;0.7;;;;;;;13.74;51.5752;941.2715;;;;
2020/10/18 14:47:57;;;;;;;1;0.5;;;;;;;13.59;51.99414;941.2981;;;;
2020/10/18 14:50:25;;;;;;;0.7;0.6;;;;;;;13.42;51.8252;941.3113;;;;
2020/10/18 14:52:48;;;;;;;0.5;0.5;;;;;;;13.28;52.0625;941.3273;;;;
2020/10/18 14:55:16;;;;;;;0.5;0.5;;;;;;;13.35;52.96484;941.2419;;;;
2020/10/18 14:57:41;;;;;;;1.7;0.8;;;;;;;13.25;53.20703;941.3807;;;;
2020/10/18 15:00:10;;;;;;;2.3;1;;;;;;;13.33;54.42383;941.4146;;;;
2020/10/18 15:02:34;;;;;;;1.6;1;;;;;;;13.33;55.71094;941.4155;;;;
2020/10/18 15:04:59;;;;;;;1.1;0.9;;;;;;;13.44;54.26465;941.4321;;;;
2020/10/18 15:07:25;;;;;;;1.3;0.8;;;;;;;13.4;53.86914;941.3948;;;;
2020/10/18 15:09:51;;;;;;;2.7;1;;;;;;;13.44;53.81641;941.4529;;;;
2020/10/18 15:12:16;;;;;;;1.3;1;;;;;;;13.43;54.12402;941.4353;;;;
2020/10/18 15:14:42;;;;;;;2;1.1;;;;;;;13.25;54.6543;941.4224;;;;
2020/10/18 15:17:07;;;;;;;1.6;0.9;;;;;;;13.1;54.4873;941.4163;;;;
2020/10/18 15:19:32;;;;;;;0.9;0.7;;;;;;;12.95;55.27148;941.4567;;;;
2020/10/18 15:21:57;;;;;;;0.6;0.6;;;;;;;12.73;56.06934;941.4808;;;;
2020/10/18 15:24:22;;;;;;;0.9;0.5;;;;;;;12.69;56.36328;941.4734;;;;
2020/10/18 15:26:49;;;;;;;1.4;0.8;;;;;;;12.78;56.31641;941.5442;;;;
2020/10/18 15:29:14;;;;;;;2.2;0.7;;;;;;;12.75;56.69238;941.5057;;;;
2020/10/18 15:31:39;;;;;;;0.6;0.5;;;;;;;12.58;56.29004;941.5193;;;;
2020/10/18 15:34:04;;;;;;;1.1;0.9;;;;;;;12.49;57.09375;941.4964;;;;
2020/10/18 15:36:29;;;;;;;4.7;1.2;;;;;;;12.48;56.97852;941.4821;;;;